Time;durP1;ratioP1;P1;durP2;ratioP2;P2;SDS_P1;SDS_P2;PMS_P1;PMS_P2;Temp;Humidity;BMP_temperature;BMP_pressure;BME280_temperature;BME280_humidity;BME280_pressure;Samples;Min_cycle;Max_cycle;Signal;HPM_P1;HPM_P2
2020/12/23 00:01:15;;;;;;;37.10;3.00;;;5.50;99.90;;;;;;5053213;28;20031;-79
2020/12/23 00:03:41;;;;;;;23.67;2.78;;;5.40;99.90;;;;;;5052683;28;20493;-79
2020/12/23 00:06:07;;;;;;;26.17;2.67;;;5.40;99.90;;;;;;5068018;28;20121;-78
2020/12/23 00:08:33;;;;;;;24.70;3.25;;;5.40;99.90;;;;;;5068039;28;20116;-79
2020/12/23 00:10:59;;;;;;;21.35;1.98;;;5.40;99.90;;;;;;5052629;28;20063;-79
2020/12/23 00:13:24;;;;;;;33.97;2.42;;;5.30;99.90;;;;;;5052482;28;20053;-79
2020/12/23 00:15:50;;;;;;;17.35;2.28;;;5.30;99.90;;;;;;5052262;28;20362;-79
2020/12/23 00:18:15;;;;;;;21.83;3.10;;;5.20;99.90;;;;;;5053458;28;20025;-79
2020/12/23 00:20:41;;;;;;;29.92;3.67;;;5.20;99.90;;;;;;5067808;28;20025;-79
2020/12/23 00:23:07;;;;;;;29.27;2.50;;;5.20;99.90;;;;;;5052354;28;20053;-79
2020/12/23 00:25:32;;;;;;;21.15;3.20;;;5.20;99.90;;;;;;5052086;28;20491;-79
2020/12/23 00:27:58;;;;;;;25.70;3.22;;;5.30;99.90;;;;;;5050345;28;20051;-79
2020/12/23 00:30:23;;;;;;;21.65;2.00;;;5.30;99.90;;;;;;5052368;28;20108;-79
2020/12/23 00:32:49;;;;;;;11.77;1.98;;;5.20;99.90;;;;;;5052186;28;20083;-79
2020/12/23 00:35:14;;;;;;;18.50;2.17;;;5.30;99.90;;;;;;5063095;28;20487;-79
2020/12/23 00:37:40;;;;;;;11.70;2.20;;;5.30;99.90;;;;;;5070792;28;20027;-79
2020/12/23 00:40:06;;;;;;;16.30;2.28;;;5.30;99.90;;;;;;5072204;28;20081;-79
2020/12/23 00:42:31;;;;;;;19.13;2.40;;;5.30;99.90;;;;;;5072073;28;20534;-79
2020/12/23 00:45:00;;;;;;;10.77;2.08;;;5.40;99.90;;;;;;5070612;28;20032;-79
2020/12/23 00:47:26;;;;;;;17.88;2.22;;;5.40;99.90;;;;;;5071955;28;20024;-79
2020/12/23 00:49:51;;;;;;;20.23;3.40;;;5.40;99.90;;;;;;5071900;28;20446;-79
2020/12/23 00:52:17;;;;;;;19.38;3.50;;;5.40;99.90;;;;;;5071078;28;20086;-79
2020/12/23 00:54:42;;;;;;;22.88;2.35;;;5.40;99.90;;;;;;5071805;28;20024;-79
2020/12/23 00:57:08;;;;;;;18.35;2.40;;;5.50;99.90;;;;;;5070522;28;20073;-78
2020/12/23 00:59:34;;;;;;;20.77;2.72;;;5.40;99.90;;;;;;5071751;28;20044;-78
2020/12/23 01:02:00;;;;;;;20.33;2.50;;;5.40;99.90;;;;;;5071688;28;20103;-79
2020/12/23 01:04:27;;;;;;;37.30;2.65;;;5.50;99.90;;;;;;5071695;28;20050;-79
2020/12/23 01:06:56;;;;;;;23.17;2.78;;;5.50;99.90;;;;;;5071757;28;20025;-79
2020/12/23 01:09:22;;;;;;;16.75;2.20;;;5.50;99.90;;;;;;5057913;28;20033;-78
2020/12/23 01:11:48;;;;;;;24.48;2.67;;;5.60;99.90;;;;;;5051656;28;20035;-79
2020/12/23 01:14:15;;;;;;;9.38;1.52;;;5.60;99.90;;;;;;5051448;28;20143;-79
2020/12/23 01:16:41;;;;;;;17.23;1.73;;;5.60;99.90;;;;;;5067181;28;20166;-79
2020/12/23 01:19:06;;;;;;;25.98;2.90;;;5.60;99.90;;;;;;5051550;28;20096;-79
2020/12/23 01:21:32;;;;;;;14.88;1.85;;;5.60;99.90;;;;;;5051672;28;20484;-79
2020/12/23 01:23:57;;;;;;;14.85;1.70;;;5.60;99.90;;;;;;5066878;28;20025;-79
2020/12/23 01:26:23;;;;;;;9.93;1.95;;;5.60;99.90;;;;;;5063754;28;20538;-79
2020/12/23 01:28:48;;;;;;;9.63;1.45;;;5.60;99.90;;;;;;5070340;28;20539;-79
2020/12/23 01:31:14;;;;;;;10.85;1.70;;;5.60;99.90;;;;;;5071560;28;20097;-78
2020/12/23 01:33:40;;;;;;;20.85;2.47;;;5.60;99.90;;;;;;5071306;28;20063;-79
2020/12/23 01:36:05;;;;;;;15.70;2.38;;;5.60;99.90;;;;;;5071495;28;20020;-79
2020/12/23 01:38:31;;;;;;;15.23;1.75;;;5.70;99.90;;;;;;5072395;28;20020;-79
2020/12/23 01:41:01;;;;;;;14.88;2.25;;;5.60;99.90;;;;;;5074191;28;20025;-80
2020/12/23 01:43:27;;;;;;;14.05;2.35;;;5.60;99.90;;;;;;5074659;28;20476;-79
2020/12/23 01:45:53;;;;;;;10.63;1.63;;;5.60;99.90;;;;;;5075282;28;20039;-79
2020/12/23 01:48:28;;;;;;;18.13;2.22;;;5.60;99.90;;;;;;5075667;28;20033;-79
2020/12/23 01:50:57;;;;;;;7.63;1.48;;;5.60;99.90;;;;;;5074077;28;20033;-79
2020/12/23 01:53:26;;;;;;;16.63;1.95;;;5.60;99.90;;;;;;5075173;28;20111;-78
2020/12/23 01:55:52;;;;;;;24.17;2.10;;;5.60;99.90;;;;;;5075026;28;20438;-79
2020/12/23 01:58:18;;;;;;;21.33;2.03;;;5.60;99.90;;;;;;5075079;28;20020;-79
2020/12/23 02:00:44;;;;;;;18.40;2.38;;;5.60;99.90;;;;;;5072950;28;20027;-79
2020/12/23 02:03:11;;;;;;;35.65;4.32;;;5.60;99.90;;;;;;5074997;28;20031;-79
2020/12/23 02:05:41;;;;;;;16.00;2.00;;;5.60;99.90;;;;;;5073502;28;20021;-79
2020/12/23 02:08:09;;;;;;;21.02;2.78;;;5.60;99.90;;;;;;5074930;28;20030;-79
2020/12/23 02:10:35;;;;;;;20.80;2.05;;;5.60;99.90;;;;;;5074966;28;20052;-79
2020/12/23 02:13:00;;;;;;;25.85;2.53;;;5.60;99.90;;;;;;5074913;28;20483;-79
2020/12/23 02:15:26;;;;;;;9.93;1.40;;;5.60;99.90;;;;;;5074474;28;20048;-79
2020/12/23 02:17:52;;;;;;;15.57;2.25;;;5.70;99.90;;;;;;5074316;28;20025;-79
2020/12/23 02:20:18;;;;;;;13.20;2.08;;;5.60;99.90;;;;;;5074772;28;20492;-79
2020/12/23 02:22:46;;;;;;;12.95;1.90;;;5.70;99.90;;;;;;5074717;28;20027;-79
2020/12/23 02:25:13;;;;;;;25.40;1.70;;;5.70;99.90;;;;;;5067577;28;20044;-79
2020/12/23 02:27:40;;;;;;;6.80;1.40;;;5.70;99.90;;;;;;5053214;28;20029;-79
2020/12/23 02:30:07;;;;;;;19.77;2.03;;;5.70;99.90;;;;;;5053439;28;20056;-79
2020/12/23 02:32:33;;;;;;;15.90;1.55;;;5.70;99.90;;;;;;5054528;28;20028;-78
2020/12/23 02:34:58;;;;;;;10.93;1.45;;;5.70;99.90;;;;;;5054903;28;20020;-79
2020/12/23 02:37:24;;;;;;;10.10;1.90;;;5.70;99.90;;;;;;5069777;28;20018;-79
2020/12/23 02:39:52;;;;;;;7.60;1.77;;;5.70;99.90;;;;;;5054305;28;20104;-79
2020/12/23 02:42:19;;;;;;;10.95;2.05;;;5.70;99.90;;;;;;5054354;28;20028;-78
2020/12/23 02:44:47;;;;;;;9.38;1.30;;;5.70;99.90;;;;;;5054060;28;20100;-79
2020/12/23 02:47:15;;;;;;;9.25;1.33;;;5.60;99.90;;;;;;5069606;28;20021;-79
2020/12/23 02:49:41;;;;;;;8.93;2.13;;;5.60;99.90;;;;;;5069140;28;20485;-79
2020/12/23 02:52:07;;;;;;;7.40;1.02;;;5.60;99.90;;;;;;5054363;28;20429;-79
2020/12/23 02:54:34;;;;;;;15.75;1.98;;;5.60;99.90;;;;;;5053797;28;20035;-79
2020/12/23 02:56:59;;;;;;;5.93;1.42;;;5.60;99.90;;;;;;5053926;28;20029;-79
2020/12/23 02:59:25;;;;;;;12.93;1.40;;;5.60;99.90;;;;;;5069451;28;20021;-79
2020/12/23 03:01:53;;;;;;;9.05;1.92;;;5.60;99.90;;;;;;5069353;28;20017;-79
2020/12/23 03:04:19;;;;;;;11.48;1.70;;;5.60;99.90;;;;;;5053774;28;20033;-79
2020/12/23 03:06:44;;;;;;;8.18;2.08;;;5.60;99.90;;;;;;5053849;28;20036;-79
2020/12/23 03:09:11;;;;;;;5.82;1.25;;;5.60;99.90;;;;;;5054368;28;20075;-79
2020/12/23 03:11:37;;;;;;;7.72;1.42;;;5.50;99.90;;;;;;5068966;28;20032;-79
2020/12/23 03:14:06;;;;;;;12.85;1.63;;;5.40;99.90;;;;;;5053445;28;20025;-79
2020/12/23 03:16:32;;;;;;;6.35;1.45;;;5.40;99.90;;;;;;5053561;28;20035;-79
2020/12/23 03:18:58;;;;;;;14.40;1.42;;;5.40;99.90;;;;;;5053682;28;20025;-79
2020/12/23 03:21:23;;;;;;;20.17;2.97;;;5.40;99.90;;;;;;5053643;28;20025;-79
2020/12/23 03:23:49;;;;;;;10.85;2.17;;;5.40;99.90;;;;;;5053753;28;20065;-79
2020/12/23 03:26:15;;;;;;;16.85;1.92;;;5.40;99.90;;;;;;5067906;28;20082;-78
2020/12/23 03:28:40;;;;;;;11.50;1.83;;;5.40;99.90;;;;;;5073443;28;20036;-79
2020/12/23 03:31:06;;;;;;;9.35;1.80;;;5.40;99.90;;;;;;5073472;28;20025;-80
2020/12/23 03:33:32;;;;;;;18.25;3.60;;;5.40;99.90;;;;;;5073332;28;20103;-79
2020/12/23 03:35:58;;;;;;;11.23;1.48;;;5.40;99.90;;;;;;5073088;28;20024;-78
2020/12/23 03:38:24;;;;;;;28.05;2.95;;;5.40;99.90;;;;;;5073125;28;20025;-79
2020/12/23 03:40:53;;;;;;;16.88;2.35;;;5.40;99.90;;;;;;5071413;28;20090;-78
2020/12/23 03:43:18;;;;;;;13.75;1.95;;;5.40;99.90;;;;;;5053254;28;20033;-79
2020/12/23 03:45:44;;;;;;;10.57;1.20;;;5.40;99.90;;;;;;5052938;28;20033;-79
2020/12/23 03:48:09;;;;;;;15.27;1.77;;;5.30;99.90;;;;;;5052911;28;20025;-79
2020/12/23 03:50:35;;;;;;;14.05;1.80;;;5.30;99.90;;;;;;5068443;28;20116;-79
2020/12/23 03:53:01;;;;;;;22.00;2.17;;;5.30;99.90;;;;;;5052923;28;20035;-79
2020/12/23 03:55:27;;;;;;;18.13;1.67;;;5.30;99.90;;;;;;5052666;28;20025;-79
2020/12/23 03:57:53;;;;;;;22.90;2.25;;;5.30;99.90;;;;;;5052901;28;20025;-79
2020/12/23 04:00:18;;;;;;;12.38;1.50;;;5.20;99.90;;;;;;5051807;28;20025;-79
2020/12/23 04:02:44;;;;;;;28.65;2.60;;;5.20;99.90;;;;;;5051316;28;20100;-78
2020/12/23 04:05:10;;;;;;;19.67;2.28;;;5.20;99.90;;;;;;5068029;28;20501;-79
2020/12/23 04:07:36;;;;;;;17.85;1.98;;;5.20;99.90;;;;;;5052652;28;20460;-79
2020/12/23 04:10:04;;;;;;;19.65;2.08;;;5.10;99.90;;;;;;5068777;28;20074;-79
2020/12/23 04:12:30;;;;;;;13.50;2.70;;;5.00;99.90;;;;;;5051244;28;20040;-79
2020/12/23 04:14:55;;;;;;;18.45;2.45;;;5.00;99.90;;;;;;5053012;28;20421;-79
2020/12/23 04:17:21;;;;;;;17.92;2.38;;;5.00;99.90;;;;;;5052452;28;20032;-79
2020/12/23 04:19:46;;;;;;;23.95;2.55;;;5.00;99.90;;;;;;5052578;28;20025;-79
2020/12/23 04:22:12;;;;;;;8.07;1.73;;;4.90;99.90;;;;;;5052445;28;20040;-79
2020/12/23 04:24:38;;;;;;;13.95;2.05;;;4.90;99.90;;;;;;5052045;28;20046;-79
2020/12/23 04:27:04;;;;;;;15.23;2.30;;;4.90;99.90;;;;;;5052287;28;20025;-78
2020/12/23 04:29:30;;;;;;;9.75;2.17;;;4.80;99.90;;;;;;5052414;28;20508;-79
2020/12/23 04:31:56;;;;;;;12.88;1.88;;;4.80;99.90;;;;;;5051365;28;20036;-79
2020/12/23 04:34:21;;;;;;;16.77;2.17;;;4.80;99.90;;;;;;5071925;28;20047;-79
2020/12/23 04:36:47;;;;;;;15.57;2.78;;;4.70;99.90;;;;;;5072134;28;20023;-79
2020/12/23 04:39:12;;;;;;;22.33;2.22;;;4.70;99.90;;;;;;5072065;28;20029;-79
2020/12/23 04:41:38;;;;;;;14.02;2.53;;;4.70;99.90;;;;;;5070935;28;20524;-79
2020/12/23 04:44:05;;;;;;;9.77;2.17;;;4.60;99.90;;;;;;5071931;28;20035;-79
2020/12/23 04:46:36;;;;;;;11.48;1.83;;;4.60;99.90;;;;;;5070690;28;20443;-79
2020/12/23 04:49:03;;;;;;;12.55;1.60;;;4.60;99.90;;;;;;5071260;28;20027;-79
2020/12/23 04:51:38;;;;;;;12.15;2.10;;;4.50;99.90;;;;;;5071975;28;20059;-79
2020/12/23 04:54:06;;;;;;;16.70;2.20;;;4.50;99.90;;;;;;5071766;28;20100;-79
2020/12/23 04:56:33;;;;;;;11.43;2.40;;;4.40;99.90;;;;;;5070519;28;20538;-79
2020/12/23 04:59:00;;;;;;;12.82;1.85;;;4.40;99.90;;;;;;5071930;28;20036;-79
2020/12/23 05:01:26;;;;;;;22.95;2.03;;;4.30;99.90;;;;;;5070598;28;20028;-79
2020/12/23 05:03:53;;;;;;;12.52;2.22;;;4.20;99.90;;;;;;5071631;28;20054;-79
2020/12/23 05:06:23;;;;;;;23.05;2.35;;;4.10;99.90;;;;;;5070844;28;20033;-79
2020/12/23 05:08:49;;;;;;;15.18;2.08;;;4.00;99.90;;;;;;5071759;28;20027;-79
2020/12/23 05:11:15;;;;;;;9.25;1.55;;;4.00;99.90;;;;;;5071862;28;20024;-78
2020/12/23 05:13:41;;;;;;;9.23;1.65;;;4.00;99.90;;;;;;5071186;28;20020;-78
2020/12/23 05:16:11;;;;;;;18.02;1.83;;;3.90;99.90;;;;;;5070265;28;20028;-79
2020/12/23 05:18:41;;;;;;;21.70;3.58;;;3.80;99.90;;;;;;5071662;28;20016;-79
2020/12/23 05:21:14;;;;;;;18.20;2.53;;;3.80;99.90;;;;;;5070438;28;20678;-79
2020/12/23 05:23:45;;;;;;;22.27;1.98;;;3.80;99.90;;;;;;5070765;28;20028;-78
2020/12/23 05:26:11;;;;;;;25.13;2.95;;;3.80;99.90;;;;;;5051949;28;20485;-79
2020/12/23 05:28:38;;;;;;;22.20;2.13;;;3.80;99.90;;;;;;5051507;28;20029;-78
2020/12/23 05:31:09;;;;;;;12.00;1.52;;;3.80;99.90;;;;;;5051643;28;20043;-79
2020/12/23 05:33:35;;;;;;;28.08;2.25;;;3.80;99.90;;;;;;5051609;28;20546;-79
2020/12/23 05:36:03;;;;;;;18.83;3.53;;;3.70;99.90;;;;;;5051312;28;20075;-79
2020/12/23 05:38:31;;;;;;;16.13;2.22;;;3.70;99.90;;;;;;5050227;28;20049;-79
2020/12/23 05:40:59;;;;;;;7.30;1.77;;;3.70;99.90;;;;;;5052176;28;20021;-79
2020/12/23 05:43:26;;;;;;;10.85;2.35;;;3.60;99.90;;;;;;5051622;28;20048;-79
2020/12/23 05:45:54;;;;;;;24.90;2.03;;;3.60;99.90;;;;;;5051167;28;20032;-79
2020/12/23 05:48:20;;;;;;;28.45;3.30;;;3.50;99.90;;;;;;5051496;28;20031;-79
2020/12/23 05:50:46;;;;;;;26.13;2.45;;;3.50;99.90;;;;;;5051403;28;20568;-79
2020/12/23 05:53:13;;;;;;;19.13;1.85;;;3.50;99.90;;;;;;5050340;28;20583;-79
2020/12/23 05:55:45;;;;;;;24.60;2.45;;;3.40;99.90;;;;;;5051308;28;20057;-78
2020/12/23 05:58:20;;;;;;;19.13;2.53;;;3.40;99.90;;;;;;5066172;28;20049;-79
2020/12/23 06:00:50;;;;;;;14.73;2.08;;;3.40;99.90;;;;;;5051519;28;20024;-78
2020/12/23 06:03:42;;;;;;;27.50;3.10;;;3.30;99.90;;;;;;5051513;28;20032;-79
2020/12/23 06:06:08;;;;;;;12.75;2.13;;;3.30;99.90;;;;;;5066942;28;20025;-79
2020/12/23 06:08:38;;;;;;;20.90;2.17;;;3.20;99.90;;;;;;5066912;28;20033;-79
2020/12/23 06:11:35;;;;;;;18.63;2.10;;;3.30;99.90;;;;;;5051629;28;20032;-78
2020/12/23 06:14:06;;;;;;;29.23;3.05;;;3.20;99.90;;;;;;5067688;28;20029;-78
2020/12/23 06:16:34;;;;;;;16.35;2.28;;;3.10;99.90;;;;;;5051256;28;20107;-78
2020/12/23 06:19:03;;;;;;;17.65;2.65;;;3.10;99.90;;;;;;5051309;28;20028;-79
2020/12/23 06:21:29;;;;;;;33.47;2.70;;;3.00;99.90;;;;;;5051262;28;20082;-78
2020/12/23 06:24:06;;;;;;;16.75;2.05;;;3.00;99.90;;;;;;5066438;28;20120;-79
2020/12/23 06:26:35;;;;;;;22.10;2.70;;;3.00;99.90;;;;;;5053488;28;20025;-79
2020/12/23 06:29:03;;;;;;;37.85;2.67;;;2.90;99.90;;;;;;5054667;28;20017;-79
2020/12/23 06:31:38;;;;;;;27.15;2.45;;;2.90;99.90;;;;;;5059439;28;20029;-79
2020/12/23 06:34:04;;;;;;;26.10;2.83;;;2.90;99.90;;;;;;5074269;28;20032;-79
2020/12/23 06:36:32;;;;;;;25.23;3.33;;;3.10;99.90;;;;;;5073143;28;20024;-79
2020/12/23 06:39:38;;;;;;;22.70;3.28;;;3.00;99.90;;;;;;5074402;28;20095;-79
2020/12/23 06:42:03;;;;;;;26.10;2.78;;;3.00;99.90;;;;;;5074274;28;20439;-79
2020/12/23 06:44:53;;;;;;;31.63;4.40;;;3.10;99.90;;;;;;5074464;28;20073;-79
2020/12/23 06:47:23;;;;;;;20.90;3.15;;;3.10;99.90;;;;;;5074311;28;20027;-79
2020/12/23 06:49:55;;;;;;;39.33;4.38;;;3.10;99.90;;;;;;5073430;28;20024;-78
2020/12/23 06:52:24;;;;;;;28.58;3.65;;;3.10;99.90;;;;;;5074193;28;20424;-79
2020/12/23 06:55:07;;;;;;;28.92;3.28;;;3.00;99.90;;;;;;5073857;28;20169;-78
2020/12/23 06:57:36;;;;;;;16.60;2.35;;;2.90;99.90;;;;;;5074325;28;20095;-79
2020/12/23 07:00:08;;;;;;;29.50;3.03;;;2.90;99.90;;;;;;5072693;28;20033;-78
2020/12/23 07:02:44;;;;;;;32.15;6.10;;;3.00;99.90;;;;;;5073901;28;20082;-79
2020/12/23 07:05:22;;;;;;;23.92;3.97;;;3.20;99.90;;;;;;5072805;28;20063;-79
2020/12/23 07:07:53;;;;;;;30.80;3.70;;;3.20;99.90;;;;;;5073914;28;20550;-79
2020/12/23 07:10:21;;;;;;;21.15;4.50;;;3.20;99.90;;;;;;5073963;28;20028;-79
2020/12/23 07:13:06;;;;;;;24.67;4.20;;;3.20;99.90;;;;;;5073662;28;20032;-79
2020/12/23 07:15:43;;;;;;;17.48;3.45;;;3.20;99.90;;;;;;5073026;28;20040;-79
2020/12/23 07:18:11;;;;;;;29.98;3.95;;;3.10;99.90;;;;;;5073710;28;20017;-79
2020/12/23 07:20:46;;;;;;;22.48;3.03;;;3.00;99.90;;;;;;5072485;28;20448;-79
2020/12/23 07:23:14;;;;;;;43.65;4.28;;;2.90;99.90;;;;;;5062287;28;20031;-79
2020/12/23 07:25:51;;;;;;;30.83;3.72;;;2.90;99.90;;;;;;5053213;28;20036;-79
2020/12/23 07:28:18;;;;;;;31.02;4.07;;;2.90;99.90;;;;;;5052198;28;20021;-79
2020/12/23 07:30:44;;;;;;;29.15;4.70;;;3.00;99.90;;;;;;5053487;28;20036;-79
2020/12/23 07:33:14;;;;;;;26.05;4.10;;;3.00;99.90;;;;;;5051981;28;20492;-79
2020/12/23 07:35:44;;;;;;;58.28;5.03;;;3.00;99.90;;;;;;5053203;28;20026;-78
2020/12/23 07:38:09;;;;;;;24.90;4.38;;;3.00;99.90;;;;;;5052980;28;20036;-79
2020/12/23 07:40:35;;;;;;;23.27;3.88;;;3.00;99.90;;;;;;5067480;28;20028;-79
2020/12/23 07:43:02;;;;;;;24.50;4.50;;;3.00;99.90;;;;;;5073284;28;20029;-79
2020/12/23 07:45:29;;;;;;;22.70;5.15;;;2.90;99.90;;;;;;5071766;28;20025;-79
2020/12/23 07:47:57;;;;;;;44.13;5.85;;;2.90;99.90;;;;;;5073091;28;20027;-79
2020/12/23 07:50:24;;;;;;;16.25;4.18;;;2.80;99.90;;;;;;5073088;28;20051;-79
2020/12/23 07:52:50;;;;;;;43.95;6.13;;;2.80;99.90;;;;;;5072937;28;20109;-78
2020/12/23 07:55:18;;;;;;;45.55;6.35;;;2.70;99.90;;;;;;5072837;28;20476;-78
2020/12/23 07:57:45;;;;;;;43.35;6.18;;;2.70;99.90;;;;;;5072078;28;20029;-78
2020/12/23 08:00:13;;;;;;;42.85;7.00;;;2.70;99.90;;;;;;5071779;28;20027;-79
2020/12/23 08:02:40;;;;;;;39.67;5.35;;;2.80;99.90;;;;;;5070595;28;20027;-79
2020/12/23 08:05:08;;;;;;;36.28;5.75;;;2.80;99.90;;;;;;5071166;28;20050;-79
2020/12/23 08:07:44;;;;;;;34.53;5.65;;;2.80;99.90;;;;;;5071186;28;20116;-79
2020/12/23 08:10:15;;;;;;;36.08;6.85;;;2.70;99.90;;;;;;5072532;28;20016;-79
2020/12/23 08:13:01;;;;;;;37.70;7.20;;;2.80;99.90;;;;;;5072519;28;20045;-78
2020/12/23 08:15:28;;;;;;;36.05;6.97;;;2.80;99.90;;;;;;5051099;28;20048;-79
2020/12/23 08:18:04;;;;;;;27.77;6.43;;;2.70;99.90;;;;;;5050889;28;20036;-77
2020/12/23 08:20:34;;;;;;;56.05;7.88;;;2.70;99.90;;;;;;5054560;28;20013;-77
2020/12/23 08:23:01;;;;;;;41.92;8.68;;;2.70;99.90;;;;;;5052518;28;20436;-78
2020/12/23 08:25:29;;;;;;;39.70;8.07;;;2.80;99.90;;;;;;5050541;28;20020;-78
2020/12/23 08:27:57;;;;;;;32.15;10.07;;;2.80;99.90;;;;;;5052554;28;20024;-78
2020/12/23 08:30:31;;;;;;;51.03;9.30;;;2.90;99.90;;;;;;5052951;28;20025;-77
2020/12/23 08:33:10;;;;;;;41.35;9.88;;;2.90;99.90;;;;;;5067872;28;20025;-78
2020/12/23 08:35:44;;;;;;;49.60;10.40;;;2.90;99.90;;;;;;5052655;28;20104;-78
2020/12/23 08:38:23;;;;;;;53.38;9.52;;;2.90;99.90;;;;;;5052147;28;20400;-78
2020/12/23 08:40:51;;;;;;;66.97;11.15;;;3.00;99.90;;;;;;5052347;28;20513;-78
2020/12/23 08:43:31;;;;;;;32.92;10.85;;;3.00;99.90;;;;;;5052111;28;20036;-78
2020/12/23 08:45:58;;;;;;;58.22;12.10;;;3.10;99.90;;;;;;5052037;28;20025;-78
2020/12/23 08:48:33;;;;;;;37.67;10.60;;;3.10;99.90;;;;;;5051782;28;20056;-77
2020/12/23 08:51:00;;;;;;;48.63;10.70;;;3.10;99.90;;;;;;5052047;28;20025;-77
2020/12/23 08:53:34;;;;;;;71.53;12.60;;;3.20;99.90;;;;;;5067169;28;20489;-78
2020/12/23 08:56:00;;;;;;;63.28;12.80;;;3.20;99.90;;;;;;5051701;28;20362;-78
2020/12/23 08:58:26;;;;;;;44.33;12.75;;;3.30;99.90;;;;;;5051859;28;20470;-78
2020/12/23 09:00:58;;;;;;;44.28;11.13;;;3.50;99.90;;;;;;5051809;28;20032;-78
2020/12/23 09:03:25;;;;;;;27.75;9.30;;;3.60;99.90;;;;;;5067231;28;20025;-77
2020/12/23 09:05:50;;;;;;;41.58;11.68;;;3.60;99.90;;;;;;5065917;28;20036;-77
2020/12/23 09:08:16;;;;;;;28.42;9.10;;;3.60;99.90;;;;;;5051690;28;20029;-78
2020/12/23 09:10:52;;;;;;;26.17;8.35;;;3.60;99.90;;;;;;5051620;28;20087;-78
2020/12/23 09:13:17;;;;;;;23.45;8.70;;;3.70;99.90;;;;;;5055115;28;20037;-79
2020/12/23 09:15:52;;;;;;;27.67;9.32;;;3.70;99.90;;;;;;5053284;28;20028;-78
2020/12/23 09:18:17;;;;;;;25.55;9.50;;;3.70;99.90;;;;;;5067040;28;20066;-78
2020/12/23 09:20:43;;;;;;;23.48;9.95;;;3.80;99.90;;;;;;5069422;28;20032;-79
2020/12/23 09:23:10;;;;;;;26.42;10.20;;;3.80;99.90;;;;;;5051637;28;20025;-79
2020/12/23 09:25:36;;;;;;;35.63;12.18;;;3.80;99.90;;;;;;5051333;28;20035;-78
2020/12/23 09:28:15;;;;;;;42.50;12.25;;;3.80;99.90;;;;;;5051266;28;20112;-78
2020/12/23 09:30:45;;;;;;;37.50;13.23;;;3.80;99.90;;;;;;5051319;28;20440;-78
2020/12/23 09:33:15;;;;;;;43.63;14.15;;;3.90;99.90;;;;;;5070137;28;20074;-78
2020/12/23 09:35:43;;;;;;;42.75;16.90;;;3.90;99.90;;;;;;5071183;28;20095;-78
2020/12/23 09:38:24;;;;;;;53.53;14.75;;;3.90;99.90;;;;;;5068773;28;20423;-79
2020/12/23 09:40:51;;;;;;;40.25;14.68;;;3.90;99.90;;;;;;5066786;28;20112;-78
2020/12/23 09:43:22;;;;;;;33.50;13.20;;;3.90;99.90;;;;;;5066697;28;20083;-78
2020/12/23 09:45:49;;;;;;;41.83;15.43;;;4.00;99.90;;;;;;5066676;28;20108;-78
2020/12/23 09:48:16;;;;;;;43.80;16.15;;;4.00;99.90;;;;;;5051282;28;20500;-79
2020/12/23 09:50:42;;;;;;;39.80;15.50;;;4.10;99.90;;;;;;5051379;28;20389;-79
2020/12/23 09:53:08;;;;;;;53.17;19.85;;;4.10;99.90;;;;;;5051323;28;20021;-79
2020/12/23 09:55:34;;;;;;;62.30;24.42;;;4.20;99.90;;;;;;5070828;28;20020;-79
2020/12/23 09:58:00;;;;;;;68.38;25.13;;;4.20;99.90;;;;;;5069811;28;20031;-79
2020/12/23 10:00:27;;;;;;;73.13;25.95;;;4.30;99.90;;;;;;5073462;28;20028;-79
2020/12/23 10:02:54;;;;;;;72.35;23.20;;;4.30;99.90;;;;;;5073780;28;20028;-79
2020/12/23 10:05:19;;;;;;;53.22;24.10;;;4.40;99.90;;;;;;5074746;28;20031;-78
2020/12/23 10:07:45;;;;;;;73.70;24.17;;;4.40;99.90;;;;;;5073991;28;20028;-77
2020/12/23 10:10:10;;;;;;;53.53;20.85;;;4.50;99.90;;;;;;5061502;28;20032;-77
2020/12/23 10:12:37;;;;;;;57.50;23.65;;;4.50;99.90;;;;;;5054501;28;20047;-78
2020/12/23 10:15:04;;;;;;;52.00;21.95;;;4.50;99.90;;;;;;5064151;28;20476;-78
2020/12/23 10:17:30;;;;;;;49.25;21.60;;;4.50;99.90;;;;;;5074644;28;20055;-78
2020/12/23 10:19:55;;;;;;;50.67;21.25;;;4.50;99.90;;;;;;5073355;28;20481;-82
2020/12/23 10:22:21;;;;;;;58.90;21.45;;;4.50;99.90;;;;;;5073121;28;20075;-78
2020/12/23 10:24:46;;;;;;;45.13;19.85;;;4.60;99.90;;;;;;5074277;28;20111;-78
2020/12/23 10:27:13;;;;;;;40.05;18.08;;;4.50;99.90;;;;;;5064409;28;20351;-78
2020/12/23 10:29:38;;;;;;;47.75;19.42;;;4.60;99.90;;;;;;5066996;28;20492;-79
2020/12/23 10:32:04;;;;;;;44.38;19.63;;;4.60;99.90;;;;;;5094594;28;20039;-79
2020/12/23 10:34:29;;;;;;;65.93;21.80;;;4.60;99.90;;;;;;5094552;28;20028;-78
2020/12/23 10:36:55;;;;;;;57.08;22.15;;;4.70;99.90;;;;;;5094616;28;20035;-78
2020/12/23 10:39:21;;;;;;;51.22;21.40;;;4.70;99.90;;;;;;5094471;28;20016;-78
2020/12/23 10:41:52;;;;;;;48.13;20.85;;;4.90;99.90;;;;;;5094480;28;20078;-78
2020/12/23 10:44:18;;;;;;;53.05;18.35;;;4.90;99.90;;;;;;5093134;28;20510;-78
2020/12/23 10:46:43;;;;;;;46.78;19.35;;;5.00;99.90;;;;;;5094405;28;20099;-78
2020/12/23 10:49:09;;;;;;;46.72;18.13;;;5.00;99.90;;;;;;5094608;28;20036;-77
2020/12/23 10:51:34;;;;;;;45.05;18.85;;;5.00;99.90;;;;;;5094576;28;20541;-78
2020/12/23 10:54:00;;;;;;;47.30;18.45;;;5.10;99.90;;;;;;5093565;28;20498;-77
2020/12/23 10:56:25;;;;;;;50.80;18.98;;;5.00;99.90;;;;;;5094378;28;20020;-78
2020/12/23 10:58:51;;;;;;;37.60;18.45;;;5.00;99.90;;;;;;5094172;28;20028;-77
2020/12/23 11:01:20;;;;;;;39.22;19.05;;;5.00;99.90;;;;;;5093050;28;20028;-77
2020/12/23 11:03:46;;;;;;;41.28;18.90;;;5.00;99.90;;;;;;5093973;28;20058;-77
2020/12/23 11:06:15;;;;;;;48.38;18.95;;;5.10;99.90;;;;;;5092944;28;20111;-78
2020/12/23 11:08:42;;;;;;;39.95;19.45;;;5.10;99.90;;;;;;5092563;28;20024;-78
2020/12/23 11:11:12;;;;;;;43.42;22.27;;;5.10;99.90;;;;;;5076905;28;20027;-79
2020/12/23 11:13:39;;;;;;;43.70;19.08;;;5.10;99.90;;;;;;5073926;28;20020;-79
2020/12/23 11:16:05;;;;;;;34.97;18.67;;;5.20;99.90;;;;;;5073527;28;20473;-80
2020/12/23 11:18:30;;;;;;;43.30;18.60;;;5.20;99.90;;;;;;5073425;28;20031;-79
2020/12/23 11:20:56;;;;;;;51.13;22.23;;;5.30;99.90;;;;;;5073669;28;20049;-79
2020/12/23 11:23:27;;;;;;;42.47;19.85;;;5.20;99.90;;;;;;5073579;28;20037;-79
2020/12/23 11:25:55;;;;;;;61.17;22.77;;;5.20;99.90;;;;;;5073291;28;20028;-79
2020/12/23 11:28:21;;;;;;;42.08;21.33;;;5.20;99.90;;;;;;5073429;28;20484;-79
2020/12/23 11:30:47;;;;;;;43.88;21.08;;;5.20;99.90;;;;;;5073479;28;20078;-79
2020/12/23 11:33:13;;;;;;;44.70;20.77;;;5.20;99.90;;;;;;5073228;28;20024;-79
2020/12/23 11:35:38;;;;;;;44.30;20.63;;;5.30;99.90;;;;;;5071808;28;20060;-79
2020/12/23 11:38:04;;;;;;;43.53;22.13;;;5.30;99.90;;;;;;5071965;28;20025;-79
2020/12/23 11:40:30;;;;;;;47.35;22.38;;;5.30;99.90;;;;;;5073259;28;20024;-78
2020/12/23 11:42:56;;;;;;;46.97;22.13;;;5.40;99.90;;;;;;5073302;28;20063;-81
2020/12/23 11:45:21;;;;;;;40.30;20.25;;;5.40;99.90;;;;;;5071773;28;20023;-79
2020/12/23 11:47:47;;;;;;;49.22;23.15;;;5.40;99.90;;;;;;5073075;28;20099;-79
2020/12/23 11:50:13;;;;;;;51.45;24.40;;;5.50;99.90;;;;;;5071792;28;20021;-79
2020/12/23 11:52:38;;;;;;;48.80;24.35;;;5.50;99.90;;;;;;5072678;28;20020;-79
2020/12/23 11:55:04;;;;;;;56.88;22.85;;;5.50;99.90;;;;;;5072803;28;20024;-79
2020/12/23 11:57:30;;;;;;;48.42;24.17;;;5.60;99.90;;;;;;5072800;28;20055;-79
2020/12/23 11:59:56;;;;;;;57.67;24.40;;;5.60;99.90;;;;;;5072873;28;20480;-78
2020/12/23 12:02:21;;;;;;;49.35;23.95;;;5.60;99.90;;;;;;5072730;28;20020;-79
2020/12/23 12:04:47;;;;;;;58.88;27.08;;;5.50;99.90;;;;;;5072517;28;20031;-79
2020/12/23 12:07:13;;;;;;;53.15;25.55;;;5.50;99.90;;;;;;5071511;28;20044;-78
2020/12/23 12:09:38;;;;;;;51.80;25.83;;;5.50;99.90;;;;;;5068544;28;20104;-79
2020/12/23 12:12:04;;;;;;;54.20;27.40;;;5.50;99.90;;;;;;5054659;28;20114;-78
2020/12/23 12:14:30;;;;;;;67.00;32.42;;;5.50;99.90;;;;;;5052664;28;20035;-78
2020/12/23 12:16:56;;;;;;;64.63;31.33;;;5.50;99.90;;;;;;5053106;28;20117;-79
2020/12/23 12:19:21;;;;;;;72.82;36.78;;;5.50;99.90;;;;;;5061014;28;20096;-78
2020/12/23 12:21:47;;;;;;;60.30;30.38;;;5.50;99.90;;;;;;5053341;28;20037;-78
2020/12/23 12:24:12;;;;;;;65.95;31.88;;;5.60;99.90;;;;;;5051098;28;20035;-78
2020/12/23 12:26:38;;;;;;;67.93;29.15;;;5.60;99.90;;;;;;5052326;28;20025;-78
2020/12/23 12:29:04;;;;;;;56.25;30.05;;;5.60;99.90;;;;;;5050922;28;20036;-78
2020/12/23 12:31:30;;;;;;;52.95;26.95;;;5.60;99.90;;;;;;5052491;28;20059;-79
2020/12/23 12:33:56;;;;;;;52.33;23.45;;;5.70;99.90;;;;;;5050734;28;20444;-79
2020/12/23 12:36:23;;;;;;;57.50;26.08;;;5.60;99.90;;;;;;5050593;28;20022;-78
2020/12/23 12:38:48;;;;;;;49.35;23.83;;;5.70;99.90;;;;;;5054377;28;20024;-78
2020/12/23 12:41:20;;;;;;;43.60;23.50;;;5.70;99.90;;;;;;5071971;28;20108;-78
2020/12/23 12:43:46;;;;;;;41.90;22.75;;;5.60;99.90;;;;;;5071123;28;20060;-77
2020/12/23 12:46:11;;;;;;;45.22;23.20;;;5.60;99.90;;;;;;5070606;28;20048;-78
2020/12/23 12:48:37;;;;;;;52.38;24.40;;;5.60;99.90;;;;;;5069411;28;20035;-79